createdAt,value
2022-10-17T00:01:34.283Z,75.50
2022-10-17T00:04:05.380Z,75.77
2022-10-17T00:06:36.024Z,76.11
2022-10-17T00:09:06.694Z,76.34
2022-10-17T00:11:37.430Z,76.49
2022-10-17T00:14:08.235Z,76.46
2022-10-17T00:16:39.155Z,76.43
2022-10-17T00:19:09.990Z,76.19
2022-10-17T00:21:40.967Z,75.66
2022-10-17T00:24:11.624Z,75.55
2022-10-17T00:26:42.231Z,75.57
2022-10-17T00:29:12.985Z,75.49
2022-10-17T00:31:43.758Z,75.29
2022-10-17T00:34:14.507Z,75.17
2022-10-17T00:36:45.208Z,75.03
2022-10-17T00:39:15.951Z,74.92
2022-10-17T00:41:46.651Z,74.63
2022-10-17T00:44:52.265Z,74.45
2022-10-17T00:47:25.313Z,74.70
2022-10-17T00:49:56.184Z,74.79
2022-10-17T00:52:33.142Z,74.90
2022-10-17T00:55:09.498Z,74.78
2022-10-17T00:57:41.260Z,74.74
2022-10-17T01:00:14.695Z,74.70
2022-10-17T01:02:45.599Z,74.78
2022-10-17T01:05:17.446Z,74.56
2022-10-17T01:07:50.035Z,74.29
2022-10-17T01:13:04.434Z,74.41
2022-10-17T01:15:49.669Z,74.47
2022-10-17T01:18:34.423Z,74.29
2022-10-17T01:21:31.526Z,74.14
2022-10-17T01:24:35.070Z,74.15
2022-10-17T01:27:45.104Z,73.95
2022-10-17T01:30:42.920Z,73.87
2022-10-17T01:33:18.872Z,73.82
2022-10-17T01:36:01.705Z,74.19
2022-10-17T01:38:40.668Z,74.39
2022-10-17T01:41:21.644Z,74.70
2022-10-17T01:44:00.558Z,74.59
2022-10-17T01:46:35.084Z,74.72
2022-10-17T01:49:09.465Z,74.95
2022-10-17T01:51:44.325Z,74.85
2022-10-17T01:54:20.647Z,74.68
2022-10-17T01:56:54.562Z,74.52
2022-10-17T01:59:30.449Z,74.33
2022-10-17T02:02:02.351Z,74.14
2022-10-17T02:04:33.064Z,74.06
2022-10-17T02:07:11.193Z,74.13
2022-10-17T02:09:42.732Z,74.26
2022-10-17T02:12:32.122Z,74.22
2022-10-17T02:15:19.987Z,74.48
2022-10-17T02:17:56.047Z,74.66
2022-10-17T02:20:33.113Z,75.03
2022-10-17T02:23:10.508Z,75.05
2022-10-17T02:25:46.959Z,75.29
2022-10-17T02:28:26.421Z,75.54
2022-10-17T02:31:01.967Z,75.54
2022-10-17T02:33:37.904Z,75.41
2022-10-17T02:36:13.243Z,75.44
2022-10-17T02:38:46.306Z,75.38
2022-10-17T02:41:20.289Z,75.58
2022-10-17T02:43:52.270Z,75.69
2022-10-17T02:46:25.928Z,75.82
2022-10-17T02:49:02.592Z,75.83
2022-10-17T02:51:38.675Z,75.64
2022-10-17T02:54:15.495Z,75.72
2022-10-17T02:56:54.448Z,75.88
2022-10-17T02:59:27.608Z,75.93
2022-10-17T03:01:58.303Z,75.51
2022-10-17T03:04:28.902Z,75.35
2022-10-17T03:06:59.751Z,75.18
2022-10-17T03:09:30.303Z,74.81
2022-10-17T03:12:01.185Z,74.77
2022-10-17T03:14:32.364Z,74.44
2022-10-17T03:17:03.145Z,74.44
2022-10-17T03:19:34.048Z,74.81
2022-10-17T03:22:04.797Z,74.73
2022-10-17T03:24:36.574Z,75.01
2022-10-17T03:27:07.826Z,74.90
2022-10-17T03:29:38.501Z,75.25
2022-10-17T03:32:09.821Z,75.28
2022-10-17T03:34:40.602Z,75.47
2022-10-17T03:37:11.597Z,75.56
2022-10-17T03:39:42.596Z,75.52
2022-10-17T03:42:13.257Z,75.29
2022-10-17T03:44:43.989Z,75.36
2022-10-17T03:47:14.829Z,75.42
2022-10-17T03:49:45.769Z,75.42
2022-10-17T03:52:17.091Z,75.37
2022-10-17T03:54:48.668Z,75.31
2022-10-17T03:57:20.527Z,75.40
2022-10-17T03:59:53.144Z,75.35
2022-10-17T04:02:24.300Z,75.43
2022-10-17T04:04:54.882Z,75.45
2022-10-17T04:10:02.053Z,75.54
2022-10-17T04:12:32.949Z,75.67
2022-10-17T04:15:04.410Z,75.76
2022-10-17T04:17:37.987Z,75.66
2022-10-17T04:20:11.297Z,75.55
2022-10-17T04:22:42.079Z,75.43
2022-10-17T04:25:14.625Z,75.30
2022-10-17T04:27:49.300Z,75.15
2022-10-17T04:30:20.255Z,75.27
2022-10-17T04:32:50.956Z,75.30
2022-10-17T04:35:24.892Z,75.55
2022-10-17T04:38:01.391Z,75.81
2022-10-17T04:40:31.979Z,76.03
2022-10-17T04:43:03.054Z,76.26
2022-10-17T04:45:38.193Z,76.62
2022-10-17T04:48:09.494Z,76.58
2022-10-17T04:50:40.279Z,76.67
2022-10-17T04:53:24.512Z,76.87
2022-10-17T04:55:55.698Z,76.87
2022-10-17T04:58:27.130Z,76.91
2022-10-17T05:00:58.133Z,77.13
2022-10-17T05:03:32.247Z,77.21
2022-10-17T05:06:07.362Z,77.30
2022-10-17T05:08:38.374Z,77.37
2022-10-17T05:11:19.479Z,77.67
2022-10-17T05:13:54.394Z,77.56
2022-10-17T05:16:26.464Z,77.36
2022-10-17T05:19:00.574Z,77.39
2022-10-17T05:21:37.242Z,77.42
2022-10-17T05:24:10.667Z,77.34
2022-10-17T05:26:42.056Z,77.51
2022-10-17T05:29:12.772Z,77.57
2022-10-17T05:31:46.212Z,77.69
2022-10-17T05:34:16.962Z,77.50
2022-10-17T05:36:48.988Z,76.76
2022-10-17T05:39:20.938Z,76.68
2022-10-17T05:41:52.708Z,76.74
2022-10-17T05:44:23.583Z,76.82
2022-10-17T05:46:57.512Z,77.07
2022-10-17T05:49:46.057Z,77.18
2022-10-17T05:52:19.155Z,77.32
2022-10-17T05:54:58.874Z,77.52
2022-10-17T05:57:30.062Z,77.56
2022-10-17T06:00:01.132Z,77.63
2022-10-17T06:02:51.981Z,77.61
2022-10-17T06:05:24.495Z,77.57
2022-10-17T06:07:58.258Z,77.54
2022-10-17T06:10:33.156Z,77.55
2022-10-17T06:13:04.160Z,77.63
2022-10-17T06:15:35.097Z,77.74
2022-10-17T06:18:09.475Z,77.78
2022-10-17T06:20:45.204Z,77.76
2022-10-17T06:23:18.073Z,77.82
2022-10-17T06:26:02.444Z,77.79
2022-10-17T06:28:34.047Z,77.71
2022-10-17T06:31:09.436Z,77.79
2022-10-17T06:33:40.923Z,77.62
2022-10-17T06:36:15.221Z,77.55
2022-10-17T06:38:46.505Z,77.45
2022-10-17T06:41:25.079Z,77.81
2022-10-17T06:43:57.631Z,77.49
2022-10-17T06:46:40.916Z,77.28
2022-10-17T06:49:13.732Z,76.95
2022-10-17T06:51:52.806Z,76.47
2022-10-17T06:54:28.086Z,75.99
2022-10-17T06:57:17.272Z,75.40
2022-10-17T07:00:07.930Z,74.51
2022-10-17T07:02:46.474Z,73.90
2022-10-17T07:05:17.526Z,73.58
2022-10-17T07:07:51.012Z,72.81
2022-10-17T07:10:23.059Z,72.49
2022-10-17T07:12:53.651Z,72.36
2022-10-17T07:15:24.465Z,71.56
2022-10-17T07:17:55.252Z,71.20
2022-10-17T07:20:26.804Z,70.13
2022-10-17T07:22:57.408Z,69.75
2022-10-17T07:25:28.524Z,69.38
2022-10-17T07:28:04.170Z,68.78
2022-10-17T07:30:36.196Z,68.80
2022-10-17T07:33:12.240Z,68.07
2022-10-17T07:35:43.466Z,67.62
2022-10-17T07:38:14.839Z,67.56
2022-10-17T07:40:45.832Z,67.16
2022-10-17T07:43:16.538Z,66.05
2022-10-17T07:45:47.320Z,66.53
2022-10-17T07:48:18.119Z,66.02
2022-10-17T07:50:49.403Z,65.91
2022-10-17T07:53:20.467Z,65.50
2022-10-17T07:55:51.433Z,65.23
2022-10-17T07:58:22.189Z,65.23
2022-10-17T08:00:52.953Z,64.91
2022-10-17T08:03:24.021Z,65.05
2022-10-17T08:05:57.909Z,64.66
2022-10-17T08:08:29.172Z,63.93
2022-10-17T08:11:05.487Z,63.61
2022-10-17T08:13:37.188Z,63.86
2022-10-17T08:16:10.913Z,64.00
2022-10-17T08:18:42.994Z,63.55
2022-10-17T08:21:13.376Z,63.74
2022-10-17T08:23:44.291Z,63.65
2022-10-17T08:26:17.317Z,63.30
2022-10-17T08:28:48.823Z,62.74
2022-10-17T08:31:22.430Z,62.60
2022-10-17T08:33:53.393Z,62.42
2022-10-17T08:36:24.322Z,62.59
2022-10-17T08:38:54.900Z,62.32
2022-10-17T08:41:45.298Z,61.84
2022-10-17T08:44:26.576Z,61.73
2022-10-17T08:47:00.947Z,61.67
2022-10-17T08:49:40.372Z,61.72
2022-10-17T08:52:17.905Z,61.54
2022-10-17T08:54:50.238Z,60.99
2022-10-17T08:57:21.105Z,61.28
2022-10-17T08:59:55.305Z,61.18
2022-10-17T09:02:49.231Z,61.23
2022-10-17T09:05:41.177Z,61.23
2022-10-17T09:08:23.688Z,61.09
2022-10-17T09:11:03.312Z,61.16
2022-10-17T09:13:48.034Z,60.92
2022-10-17T09:16:38.195Z,60.85
2022-10-17T09:19:18.363Z,60.66
2022-10-17T09:21:53.450Z,60.75
2022-10-17T09:24:32.996Z,60.52
2022-10-17T09:27:04.818Z,60.41
2022-10-17T09:29:40.171Z,60.39
2022-10-17T09:32:20.179Z,60.65
2022-10-17T09:34:52.606Z,60.20
2022-10-17T09:37:32.121Z,60.32
2022-10-17T09:40:03.147Z,60.17
2022-10-17T09:42:36.410Z,59.83
2022-10-17T09:45:19.521Z,59.81
2022-10-17T09:47:59.532Z,59.59
2022-10-17T09:50:34.468Z,59.59
2022-10-17T09:53:14.511Z,59.63
2022-10-17T09:55:48.297Z,59.35
2022-10-17T09:58:21.514Z,59.45
2022-10-17T10:00:52.513Z,59.43
2022-10-17T10:03:25.304Z,59.26
2022-10-17T10:06:05.057Z,59.00
2022-10-17T10:08:39.160Z,59.13
2022-10-17T10:11:13.950Z,59.08
2022-10-17T10:13:46.884Z,59.01
2022-10-17T10:16:21.658Z,58.74
2022-10-17T10:18:53.333Z,58.80
2022-10-17T10:21:25.217Z,58.71
2022-10-17T10:24:14.794Z,59.00
2022-10-17T10:26:48.090Z,58.84
2022-10-17T10:29:30.983Z,59.03
2022-10-17T10:32:11.640Z,59.03
2022-10-17T10:34:51.157Z,58.70
2022-10-17T10:37:24.542Z,58.75
2022-10-17T10:39:58.977Z,58.81
2022-10-17T10:42:33.437Z,59.12
2022-10-17T10:45:48.424Z,58.91
2022-10-17T10:48:21.223Z,58.93
2022-10-17T10:50:54.976Z,59.25
2022-10-17T10:53:39.861Z,59.20
2022-10-17T10:56:17.084Z,59.12
2022-10-17T10:58:55.489Z,58.90
2022-10-17T11:01:34.032Z,58.74
2022-10-17T11:04:21.316Z,58.55
2022-10-17T11:07:00.297Z,59.02
2022-10-17T11:09:43.974Z,58.85
2022-10-17T11:12:21.830Z,58.94
2022-10-17T11:14:59.649Z,58.88
2022-10-17T11:17:39.872Z,58.79
2022-10-17T11:20:27.057Z,59.02
2022-10-17T11:23:04.121Z,59.14
2022-10-17T11:25:37.294Z,58.92
2022-10-17T11:28:16.809Z,59.03
2022-10-17T11:30:53.294Z,59.09
2022-10-17T11:33:33.092Z,58.94
2022-10-17T11:36:07.830Z,58.67
2022-10-17T11:38:50.973Z,58.82
2022-10-17T11:41:28.338Z,58.85
2022-10-17T11:44:05.204Z,58.94
2022-10-17T11:46:38.311Z,59.13
2022-10-17T11:49:19.183Z,58.87
2022-10-17T11:52:00.882Z,58.78
2022-10-17T11:54:37.539Z,58.55
2022-10-17T11:57:27.702Z,58.39
2022-10-17T12:00:10.868Z,58.45
2022-10-17T12:02:48.920Z,58.49
2022-10-17T12:05:23.695Z,58.42
2022-10-17T12:08:01.889Z,58.61
2022-10-17T12:10:40.987Z,58.55
2022-10-17T12:13:45.648Z,58.66
2022-10-17T12:16:51.095Z,58.43
2022-10-17T12:19:38.662Z,58.22
2022-10-17T12:22:28.951Z,58.22
2022-10-17T12:25:02.837Z,58.08
2022-10-17T12:27:43.620Z,58.11
2022-10-17T12:30:23.672Z,58.00
2022-10-17T12:33:08.077Z,57.93
2022-10-17T12:35:40.482Z,57.95
2022-10-17T12:38:29.475Z,57.62
2022-10-17T12:41:07.981Z,57.62
2022-10-17T12:43:55.441Z,57.39
2022-10-17T12:46:51.082Z,57.14
2022-10-17T12:49:42.783Z,56.98
2022-10-17T12:52:43.631Z,56.99
2022-10-17T12:55:19.116Z,56.93
2022-10-17T12:57:58.719Z,56.48
2022-10-17T13:00:38.234Z,56.55
2022-10-17T13:03:16.661Z,56.19
2022-10-17T13:05:53.751Z,56.18
2022-10-17T13:08:28.190Z,56.01
2022-10-17T13:10:59.919Z,56.05
2022-10-17T13:13:40.455Z,56.07
2022-10-17T13:16:28.704Z,56.03
2022-10-17T13:19:00.504Z,55.96
2022-10-17T13:21:31.449Z,55.78
2022-10-17T13:24:02.091Z,55.70
2022-10-17T13:26:32.901Z,55.95
2022-10-17T13:29:12.407Z,55.83
2022-10-17T13:31:45.398Z,55.83
2022-10-17T13:34:21.336Z,55.68
2022-10-17T13:36:57.751Z,55.69
2022-10-17T13:39:52.450Z,55.92
2022-10-17T13:42:27.367Z,56.17
2022-10-17T13:44:59.440Z,56.33
2022-10-17T13:47:33.450Z,56.46
2022-10-17T13:50:12.743Z,56.52
2022-10-17T13:53:06.308Z,56.51
2022-10-17T13:55:37.269Z,56.71
2022-10-17T13:58:18.149Z,56.73
2022-10-17T14:00:50.862Z,56.91
2022-10-17T14:03:23.362Z,57.21
2022-10-17T14:06:13.340Z,57.24
2022-10-17T14:08:53.923Z,57.35
2022-10-17T14:11:33.352Z,57.55
2022-10-17T14:14:07.197Z,57.84
2022-10-17T14:16:41.365Z,57.94
2022-10-17T14:19:24.864Z,58.26
2022-10-17T14:22:14.996Z,58.40
2022-10-17T14:24:44.428Z,58.76
2022-10-17T14:27:30.871Z,58.78
2022-10-17T14:30:04.040Z,58.99
2022-10-17T14:32:37.883Z,59.11
2022-10-17T14:35:37.348Z,59.13
2022-10-17T14:38:10.991Z,59.58
2022-10-17T14:40:52.512Z,59.70
2022-10-17T14:43:25.923Z,59.77
2022-10-17T14:46:00.639Z,60.11
2022-10-17T14:48:32.704Z,60.18
2022-10-17T14:51:12.259Z,60.27
2022-10-17T14:53:44.327Z,60.47
2022-10-17T14:56:29.007Z,60.59
2022-10-17T14:58:59.858Z,60.60
2022-10-17T15:01:30.542Z,60.57
2022-10-17T15:04:01.353Z,60.89
2022-10-17T15:06:34.392Z,61.11
2022-10-17T15:09:05.622Z,61.29
2022-10-17T15:11:36.269Z,61.37
2022-10-17T15:14:06.911Z,61.47
2022-10-17T15:16:39.469Z,61.57
2022-10-17T15:19:10.727Z,61.61
2022-10-17T15:21:44.794Z,61.75
2022-10-17T15:24:17.994Z,61.76
2022-10-17T15:26:49.698Z,61.83
2022-10-17T15:29:20.673Z,61.90
2022-10-17T15:31:51.403Z,61.73
2022-10-17T15:34:22.115Z,61.79
2022-10-17T15:36:54.645Z,61.70
2022-10-17T15:39:25.726Z,61.88
2022-10-17T15:41:56.499Z,61.90
2022-10-17T15:44:27.240Z,61.97
2022-10-17T15:46:58.353Z,61.87
2022-10-17T15:49:29.162Z,62.03
2022-10-17T15:52:00.431Z,62.29
2022-10-17T15:54:31.190Z,62.40
2022-10-17T15:57:02.565Z,62.74
2022-10-17T15:59:36.395Z,62.67
2022-10-17T16:02:12.881Z,62.83
2022-10-17T16:04:44.385Z,62.99
2022-10-17T16:07:15.075Z,62.89
2022-10-17T16:09:45.814Z,63.07
2022-10-17T16:12:20.065Z,63.25
2022-10-17T16:14:50.743Z,63.36
2022-10-17T16:17:21.434Z,63.38
2022-10-17T16:19:52.102Z,63.49
2022-10-17T16:22:30.108Z,63.73
2022-10-17T16:25:07.927Z,63.97
2022-10-17T16:27:39.115Z,63.90
2022-10-17T16:30:11.026Z,63.96
2022-10-17T16:32:41.628Z,64.31
2022-10-17T16:35:17.440Z,64.33
2022-10-17T16:37:48.706Z,64.42
2022-10-17T16:40:20.069Z,64.63
2022-10-17T16:42:50.801Z,64.60
2022-10-17T16:45:23.840Z,64.83
2022-10-17T16:47:54.541Z,64.87
2022-10-17T16:50:25.540Z,64.95
2022-10-17T16:52:56.150Z,64.96
2022-10-17T16:55:26.856Z,65.02
2022-10-17T16:57:57.449Z,65.11
2022-10-17T17:00:28.290Z,65.04
2022-10-17T17:02:58.977Z,65.27
2022-10-17T17:05:29.636Z,65.42
2022-10-17T17:08:01.097Z,65.38
2022-10-17T17:10:31.690Z,65.49
2022-10-17T17:13:03.342Z,65.50
2022-10-17T17:15:33.956Z,65.53
2022-10-17T17:18:05.846Z,65.66
2022-10-17T17:20:36.993Z,65.77
2022-10-17T17:23:07.726Z,65.73
2022-10-17T17:25:39.382Z,65.99
2022-10-17T17:28:10.011Z,65.99
2022-10-17T17:30:41.526Z,66.06
2022-10-17T17:33:12.239Z,66.28
2022-10-17T17:35:42.924Z,66.25
2022-10-17T17:38:13.654Z,66.37
2022-10-17T17:40:50.745Z,66.46
2022-10-17T17:43:22.501Z,66.60
2022-10-17T17:45:53.109Z,66.64
2022-10-17T17:48:24.155Z,66.76
2022-10-17T17:50:54.847Z,66.93
2022-10-17T17:53:25.765Z,66.92
2022-10-17T17:56:05.538Z,67.03
2022-10-17T17:58:36.969Z,67.17
2022-10-17T18:01:15.144Z,67.16
2022-10-17T18:03:46.283Z,67.36
2022-10-17T18:06:18.069Z,67.24
2022-10-17T18:08:50.890Z,67.43
2022-10-17T18:11:22.378Z,67.37
2022-10-17T18:13:57.537Z,67.40
2022-10-17T18:16:29.605Z,67.42
2022-10-17T18:19:05.917Z,67.55
2022-10-17T18:21:38.131Z,67.54
2022-10-17T18:24:09.757Z,67.63
2022-10-17T18:26:40.829Z,67.80
2022-10-17T18:29:12.865Z,67.71
2022-10-17T18:31:43.665Z,67.77
2022-10-17T18:34:14.418Z,68.05
2022-10-17T18:36:45.184Z,67.83
2022-10-17T18:39:15.826Z,67.85
2022-10-17T18:41:46.610Z,67.90
2022-10-17T18:44:17.270Z,68.04
2022-10-17T18:46:47.988Z,68.05
2022-10-17T18:49:21.991Z,68.12
2022-10-17T18:51:52.948Z,68.12
2022-10-17T18:54:24.505Z,68.19
2022-10-17T18:56:56.598Z,68.32
2022-10-17T18:59:27.483Z,68.39
2022-10-17T19:01:58.297Z,68.36
2022-10-17T19:04:29.122Z,68.46
2022-10-17T19:06:59.729Z,68.63
2022-10-17T19:09:30.477Z,68.54
2022-10-17T19:12:01.474Z,68.49
2022-10-17T19:14:32.128Z,68.59
2022-10-17T19:17:04.117Z,68.71
2022-10-17T19:19:33.498Z,68.72
2022-10-17T19:22:05.635Z,68.75
2022-10-17T19:24:36.418Z,68.97
2022-10-17T19:27:07.318Z,68.94
2022-10-17T19:29:37.954Z,69.14
2022-10-17T19:32:15.564Z,69.10
2022-10-17T19:34:48.795Z,69.12
2022-10-17T19:37:19.609Z,69.28
2022-10-17T19:39:51.127Z,69.47
2022-10-17T19:42:21.833Z,69.54
2022-10-17T19:44:52.562Z,69.82
2022-10-17T19:47:23.226Z,70.24
2022-10-17T19:49:53.897Z,70.18
2022-10-17T19:52:24.784Z,70.50
2022-10-17T19:54:55.913Z,70.69
2022-10-17T19:57:27.274Z,70.91
2022-10-17T19:59:58.485Z,71.10
2022-10-17T20:02:29.875Z,71.10
2022-10-17T20:05:17.609Z,71.10
2022-10-17T20:07:49.077Z,71.01
2022-10-17T20:10:19.976Z,70.95
2022-10-17T20:12:50.562Z,71.31
2022-10-17T20:15:21.216Z,71.49
2022-10-17T20:17:51.933Z,71.42
2022-10-17T20:20:22.900Z,71.43
2022-10-17T20:22:54.261Z,71.43
2022-10-17T20:25:25.581Z,71.44
2022-10-17T20:27:56.393Z,71.49
2022-10-17T20:30:27.129Z,71.53
2022-10-17T20:32:57.954Z,71.42
2022-10-17T20:35:28.738Z,71.60
2022-10-17T20:38:00.097Z,72.13
2022-10-17T20:40:35.160Z,72.21
2022-10-17T20:43:07.651Z,72.11
2022-10-17T20:45:50.763Z,72.24
2022-10-17T20:48:21.167Z,72.42
2022-10-17T20:50:52.760Z,72.80
2022-10-17T20:53:38.721Z,72.71
2022-10-17T20:56:23.496Z,72.62
2022-10-17T20:58:55.831Z,72.81
2022-10-17T21:01:25.918Z,72.75
2022-10-17T21:04:02.459Z,72.96
2022-10-17T21:06:41.472Z,72.92
2022-10-17T21:09:12.111Z,72.86
2022-10-17T21:11:43.526Z,73.01
2022-10-17T21:14:16.732Z,72.99
2022-10-17T21:16:47.355Z,72.96
2022-10-17T21:19:18.548Z,73.39
2022-10-17T21:21:49.302Z,73.57
2022-10-17T21:24:20.861Z,73.37
2022-10-17T21:26:55.675Z,73.47
2022-10-17T21:29:27.085Z,73.57
2022-10-17T21:31:57.827Z,73.58
2022-10-17T21:34:28.799Z,73.42
2022-10-17T21:36:59.628Z,73.32
2022-10-17T21:39:30.747Z,73.48
2022-10-17T21:42:01.504Z,73.48
2022-10-17T21:44:32.239Z,73.42
2022-10-17T21:47:03.217Z,73.49
2022-10-17T21:49:34.123Z,73.45
2022-10-17T21:52:07.146Z,73.72
2022-10-17T21:54:37.710Z,73.74
2022-10-17T21:57:08.297Z,73.90
2022-10-17T21:59:39.121Z,74.29
2022-10-17T22:02:09.747Z,75.39
2022-10-17T22:04:40.368Z,75.24
2022-10-17T22:07:11.048Z,74.91
2022-10-17T22:09:41.729Z,75.07
2022-10-17T22:12:12.333Z,75.02
2022-10-17T22:14:44.920Z,74.90
2022-10-17T22:17:15.672Z,74.67
2022-10-17T22:19:46.436Z,74.21
2022-10-17T22:22:17.033Z,74.12
2022-10-17T22:24:47.688Z,73.90
2022-10-17T22:27:18.406Z,73.59
2022-10-17T22:29:49.139Z,73.34
2022-10-17T22:32:22.366Z,73.15
2022-10-17T22:34:53.510Z,73.06
2022-10-17T22:37:24.571Z,72.87
2022-10-17T22:39:55.283Z,72.71
2022-10-17T22:42:25.964Z,72.64
2022-10-17T22:44:56.592Z,72.57
2022-10-17T22:47:27.404Z,72.61
2022-10-17T22:49:58.517Z,72.67
2022-10-17T22:52:29.314Z,72.38
2022-10-17T22:55:00.381Z,72.31
2022-10-17T22:57:31.055Z,72.43
2022-10-17T23:00:01.674Z,72.57
2022-10-17T23:02:32.619Z,72.69
2022-10-17T23:05:07.754Z,72.68
2022-10-17T23:07:38.426Z,72.70
2022-10-17T23:10:10.624Z,72.76
2022-10-17T23:12:41.509Z,72.77
2022-10-17T23:15:13.287Z,72.62
2022-10-17T23:17:44.037Z,72.57
2022-10-17T23:20:15.146Z,72.54
2022-10-17T23:22:45.957Z,72.46
2022-10-17T23:25:16.617Z,72.33
2022-10-17T23:27:47.278Z,72.31
2022-10-17T23:30:18.775Z,72.50
2022-10-17T23:32:49.374Z,72.39
2022-10-17T23:35:20.260Z,72.55
2022-10-17T23:37:51.237Z,72.66
2022-10-17T23:40:22.034Z,72.96
2022-10-17T23:42:52.699Z,72.83
2022-10-17T23:45:23.423Z,72.71
2022-10-17T23:47:54.145Z,72.65
2022-10-17T23:50:24.762Z,72.65
2022-10-17T23:52:55.567Z,72.61
2022-10-17T23:55:26.222Z,72.67
2022-10-17T23:57:56.783Z,72.60
